Dearborn Heights, Michigan
Current Conditions -  °F | °C
As of 4:53 AM on Tuesday 21 Oct 2014 (Local Time) from KDTW Reporting Station
Overcast Overcast  
Wind Chill:   Ceiling: 2500
Heat Index:   Visibility: 10mi
Dew Point:   Wind: 8mph
Humidity: 80%   Direction: 330°NNW
Pressure: 29.9"   Gusts: NA
Location:  42.33°N, 83.28°W
Report Text: KDTW 210853Z 33007KT 10SM BKN025 OVC055 09/06 A2990 RMK AO2 SLP125 T00940061 51003
Loading
Personal Weather Stations






























Interactive Weather Map
Tropical Storm Tracking
New forecast layout! Learn more

10-Day Weather Forecast

Advertisements
Track Severe Weather on mobile